Schedule Details


Flight Number: CTN301
Departure: Cilipi (LDDU) at 20:30
Arrival: Franjo Tudman (LDZA) at 21:35
Route: MADOS L187 VRANA UL187 KOMAR L187 TEBLI

Weather Information
LDDU 190900Z 12003KT 070V150 9999 SCT030 13/07 Q1019 NOSIG
LDZA 190900Z VRB01KT CAVOK 08/02 Q1022 NOSIG
Schedule Frequency

Route Map